Time;durP1;ratioP1;P1;durP2;ratioP2;P2;SDS_P1;SDS_P2;PMS_P1;PMS_P2;Temp;Humidity;BMP_temperature;BMP_pressure;BME280_temperature;BME280_humidity;BME280_pressure;Samples;Min_cycle;Max_cycle;Signal;HPM_P1;HPM_P2
2023/03/28 00:01:12;;;;;;;9.30;3.25;;;;;;;1.76;81.44;102649.84;4949593;28;20033;-96
2023/03/28 00:03:53;;;;;;;10.40;3.45;;;;;;;1.75;81.67;102645.44;4940549;28;20069;-96
2023/03/28 00:06:20;;;;;;;9.60;3.20;;;;;;;1.77;81.53;102651.66;4946018;29;20043;-95
2023/03/28 00:08:49;;;;;;;7.40;3.05;;;;;;;1.74;81.46;102649.69;4942283;28;20041;-96
2023/03/28 00:11:19;;;;;;;8.20;3.00;;;;;;;1.70;81.74;102639.03;4952479;28;20027;-96
2023/03/28 00:14:02;;;;;;;7.82;3.40;;;;;;;1.70;81.42;102651.88;4961569;28;20081;-96
2023/03/28 00:16:32;;;;;;;8.13;2.75;;;;;;;1.64;81.73;102646.19;4940982;28;20031;-96
2023/03/28 00:19:01;;;;;;;8.38;2.90;;;;;;;1.60;81.56;102646.69;4949413;29;20031;-95
2023/03/28 00:21:29;;;;;;;10.30;3.17;;;;;;;1.55;82.18;102649.75;4947806;28;20031;-96
2023/03/28 00:24:02;;;;;;;8.52;3.30;;;;;;;1.53;81.55;102643.53;4966721;28;20026;-96
2023/03/28 00:26:52;;;;;;;10.63;3.60;;;;;;;1.55;82.11;102638.53;4947939;29;20038;-96
2023/03/28 00:29:21;;;;;;;6.55;2.95;;;;;;;1.52;82.01;102641.75;4962675;28;20027;-96
2023/03/28 00:31:48;;;;;;;7.93;3.00;;;;;;;1.50;81.31;102634.69;4948780;28;20431;-96
2023/03/28 00:34:16;;;;;;;9.48;3.00;;;;;;;1.47;82.49;102643.00;4961942;28;20036;-96
2023/03/28 00:36:44;;;;;;;9.05;3.30;;;;;;;1.43;82.15;102640.91;4956877;28;20042;-96
2023/03/28 00:39:10;;;;;;;7.50;2.97;;;;;;;1.42;82.60;102640.78;4941614;29;20039;-96
2023/03/28 00:41:41;;;;;;;6.38;3.13;;;;;;;1.43;82.23;102640.91;4944342;28;21504;-96
2023/03/28 00:44:48;;;;;;;7.35;2.72;;;;;;;1.42;82.12;102646.84;4944870;28;20104;-96
2023/03/28 00:47:50;;;;;;;25.52;5.15;;;;;;;1.35;82.67;102636.78;4942170;28;20023;-96
2023/03/28 00:50:39;;;;;;;9.05;3.20;;;;;;;1.28;83.03;102643.03;4956921;28;20520;-96
2023/03/28 00:53:20;;;;;;;7.45;3.50;;;;;;;1.25;82.33;102645.31;4943073;29;20035;-96
2023/03/28 00:55:57;;;;;;;8.50;2.90;;;;;;;1.23;81.81;102648.50;4942247;28;20023;-96
2023/03/28 00:58:32;;;;;;;8.82;3.38;;;;;;;1.21;81.79;102649.25;4965846;28;20031;-96
2023/03/28 01:00:58;;;;;;;7.97;2.75;;;;;;;1.18;82.55;102645.53;4952691;29;20101;-96
2023/03/28 01:03:33;;;;;;;9.13;3.05;;;;;;;1.13;83.60;102652.81;4953886;28;20032;-96
2023/03/28 01:06:03;;;;;;;6.78;2.72;;;;;;;1.10;84.02;102649.97;4957541;28;20042;-96
2023/03/28 01:08:33;;;;;;;6.35;2.63;;;;;;;1.07;83.64;102643.66;4958174;28;20019;-96
2023/03/28 01:11:01;;;;;;;7.10;3.05;;;;;;;1.07;83.50;102647.09;4956392;28;20031;-96
2023/03/28 01:13:33;;;;;;;7.75;3.20;;;;;;;1.06;83.24;102649.53;4956558;28;20027;-96
2023/03/28 01:16:03;;;;;;;8.80;3.70;;;;;;;1.05;83.23;102643.50;4955774;28;20054;-96
2023/03/28 01:18:33;;;;;;;7.32;2.88;;;;;;;1.04;83.52;102644.25;4978972;28;20119;-96
2023/03/28 01:21:05;;;;;;;8.13;2.85;;;;;;;1.03;83.83;102645.03;4967058;28;20057;-96
2023/03/28 01:24:07;;;;;;;7.53;3.00;;;;;;;1.03;84.00;102639.91;4972762;28;20120;-96
2023/03/28 01:26:49;;;;;;;8.13;3.30;;;;;;;1.01;83.81;102633.72;4981225;28;20504;-96
2023/03/28 01:29:35;;;;;;;11.18;3.65;;;;;;;1.01;83.12;102638.84;4980642;28;20004;-96
2023/03/28 01:32:22;;;;;;;6.50;3.05;;;;;;;1.00;83.40;102637.03;4968731;28;20048;-96
2023/03/28 01:35:10;;;;;;;7.63;3.40;;;;;;;0.98;84.51;102633.44;4961294;28;21715;-96
2023/03/28 01:38:08;;;;;;;7.45;3.30;;;;;;;0.95;84.56;102636.63;4965355;28;20523;-96
2023/03/28 01:40:55;;;;;;;9.63;3.00;;;;;;;0.89;83.51;102628.38;4963660;28;20031;-96
2023/03/28 01:43:47;;;;;;;6.40;2.97;;;;;;;0.88;84.06;102636.81;4979346;28;20031;-96
2023/03/28 01:46:18;;;;;;;8.32;3.45;;;;;;;0.84;83.75;102630.53;4961881;28;20035;-96
2023/03/28 01:48:56;;;;;;;7.20;3.65;;;;;;;0.84;83.73;102627.03;4981137;28;20046;-96
2023/03/28 01:51:36;;;;;;;7.22;3.50;;;;;;;0.80;84.29;102622.41;4962466;28;20095;-96
2023/03/28 01:54:29;;;;;;;7.25;3.42;;;;;;;0.78;84.29;102618.78;4951805;29;20028;-96
2023/03/28 01:57:01;;;;;;;6.70;3.10;;;;;;;0.77;83.90;102623.03;4972228;28;20038;-96
2023/03/28 01:59:32;;;;;;;9.15;3.45;;;;;;;0.74;84.70;102620.19;4955055;29;20070;-96
2023/03/28 02:02:07;;;;;;;7.13;3.22;;;;;;;0.67;84.20;102617.81;4957069;29;20034;-96
2023/03/28 02:04:35;;;;;;;6.60;3.17;;;;;;;0.57;85.21;102618.63;4957193;29;20036;-96
2023/03/28 02:07:07;;;;;;;11.35;3.58;;;;;;;0.53;84.17;102621.66;4960575;29;20019;-96
2023/03/28 02:09:36;;;;;;;8.70;3.55;;;;;;;0.53;84.12;102624.22;4991945;23;20058;-65
2023/03/28 02:12:09;;;;;;;7.80;3.45;;;;;;;0.54;85.06;102628.59;4960323;28;20165;-65
2023/03/28 02:14:42;;;;;;;8.30;3.60;;;;;;;0.55;83.81;102629.47;4973232;28;20070;-65
2023/03/28 02:17:14;;;;;;;8.10;3.42;;;;;;;0.54;84.04;102625.09;4967478;28;20406;-65
2023/03/28 02:19:45;;;;;;;8.30;3.70;;;;;;;0.49;84.26;102623.03;4976223;28;20031;-65
2023/03/28 02:22:13;;;;;;;9.50;3.95;;;;;;;0.47;85.03;102621.09;4962126;28;20042;-65
2023/03/28 02:24:38;;;;;;;7.75;3.63;;;;;;;0.46;84.56;102625.28;4962508;28;20038;-65
2023/03/28 02:27:04;;;;;;;7.45;3.13;;;;;;;0.48;84.61;102623.78;4963205;28;20027;-65
2023/03/28 02:29:29;;;;;;;9.15;3.35;;;;;;;0.48;84.16;102615.22;4963613;28;20050;-65
2023/03/28 02:31:55;;;;;;;8.48;3.33;;;;;;;0.47;84.67;102616.84;4961985;28;20037;-65
2023/03/28 02:34:20;;;;;;;7.28;3.53;;;;;;;0.46;85.21;102617.59;4963048;28;20026;-65
2023/03/28 02:36:55;;;;;;;8.57;3.20;;;;;;;0.44;84.42;102624.25;4962626;28;20042;-66
2023/03/28 02:39:37;;;;;;;8.30;3.50;;;;;;;0.40;84.97;102619.59;4962386;28;20031;-65
2023/03/28 02:42:24;;;;;;;6.32;3.28;;;;;;;0.40;84.88;102613.59;4962402;28;20083;-65
2023/03/28 02:44:59;;;;;;;8.70;3.38;;;;;;;0.38;85.81;102616.00;4962868;28;20026;-65
2023/03/28 02:47:47;;;;;;;9.45;3.75;;;;;;;0.38;85.39;102615.09;4961984;28;20379;-65
2023/03/28 02:50:31;;;;;;;8.82;3.75;;;;;;;0.38;85.32;102610.88;4961496;28;20055;-65
2023/03/28 02:53:26;;;;;;;10.07;3.63;;;;;;;0.40;85.46;102616.16;4960975;28;20027;-65
2023/03/28 02:56:06;;;;;;;10.40;4.13;;;;;;;0.38;85.42;102616.00;4940125;28;20406;-65
2023/03/28 02:58:42;;;;;;;9.38;3.80;;;;;;;0.36;84.87;102611.50;4942515;29;20091;-66
2023/03/28 03:01:09;;;;;;;8.50;3.50;;;;;;;0.31;85.13;102609.38;4940276;29;20043;-65
2023/03/28 03:03:35;;;;;;;7.25;3.40;;;;;;;0.30;85.38;102616.94;4942690;28;20027;-65
2023/03/28 03:06:03;;;;;;;7.07;3.65;;;;;;;0.27;85.94;102606.41;4942668;29;20027;-65
2023/03/28 03:08:28;;;;;;;9.00;3.58;;;;;;;0.25;86.20;102608.81;4942556;29;20019;-65
2023/03/28 03:10:54;;;;;;;9.35;3.70;;;;;;;0.24;86.09;102607.00;4958739;28;20106;-65
2023/03/28 03:13:20;;;;;;;9.05;3.85;;;;;;;0.25;85.76;102607.94;4960041;28;20034;-65
2023/03/28 03:15:45;;;;;;;9.30;3.80;;;;;;;0.26;85.18;102609.72;4961359;28;20109;-66
2023/03/28 03:18:11;;;;;;;8.15;3.88;;;;;;;0.27;85.34;102608.97;4961805;28;20031;-65
2023/03/28 03:20:39;;;;;;;9.43;3.88;;;;;;;0.28;85.51;102610.78;4941407;28;20027;-66
2023/03/28 03:23:06;;;;;;;7.22;3.88;;;;;;;0.25;85.78;102608.81;4958357;28;20511;-65
2023/03/28 03:25:33;;;;;;;8.82;4.20;;;;;;;0.22;85.89;102605.06;4961311;28;20054;-65
2023/03/28 03:27:59;;;;;;;10.88;4.20;;;;;;;0.21;86.18;102610.97;4943851;28;20026;-65
2023/03/28 03:30:24;;;;;;;9.50;4.15;;;;;;;0.21;86.55;102616.09;4961166;28;20050;-65
2023/03/28 03:32:49;;;;;;;10.40;4.20;;;;;;;0.19;86.59;102615.03;4960929;28;20077;-65
2023/03/28 03:35:15;;;;;;;9.80;4.63;;;;;;;0.17;86.53;102615.81;4960595;28;20035;-65
2023/03/28 03:37:40;;;;;;;9.02;4.47;;;;;;;0.15;87.23;102617.31;4961734;28;20027;-65
2023/03/28 03:40:07;;;;;;;11.65;4.75;;;;;;;0.14;87.31;102609.47;4961338;28;20027;-65
2023/03/28 03:42:32;;;;;;;11.02;5.10;;;;;;;0.15;87.01;102617.31;4959971;28;20030;-66
2023/03/28 03:44:57;;;;;;;8.85;4.72;;;;;;;0.15;86.62;102612.19;4961034;28;20046;-65
2023/03/28 03:47:23;;;;;;;9.73;5.03;;;;;;;0.13;87.07;102611.16;4960907;28;20027;-65
2023/03/28 03:49:48;;;;;;;9.45;4.72;;;;;;;0.11;86.61;102616.88;4960816;28;20023;-65
2023/03/28 03:52:13;;;;;;;8.88;4.95;;;;;;;0.11;86.28;102615.19;4961236;28;20038;-65
2023/03/28 03:54:39;;;;;;;10.20;4.75;;;;;;;0.13;86.02;102613.72;4959189;28;20058;-65
2023/03/28 03:57:04;;;;;;;10.45;5.25;;;;;;;0.13;86.08;102613.72;4960240;28;20035;-65
2023/03/28 03:59:29;;;;;;;11.70;5.20;;;;;;;0.15;86.32;102613.84;4960015;28;20027;-65
2023/03/28 04:01:54;;;;;;;9.73;5.05;;;;;;;0.14;85.72;102609.47;4960446;28;20043;-65
2023/03/28 04:04:21;;;;;;;12.50;5.03;;;;;;;0.14;86.52;102614.59;4960764;28;20038;-65
2023/03/28 04:06:46;;;;;;;11.77;5.53;;;;;;;0.12;86.39;102604.19;4960218;28;20027;-65
2023/03/28 04:09:12;;;;;;;11.30;5.32;;;;;;;0.09;87.07;102609.03;4960487;28;20053;-65
2023/03/28 04:11:37;;;;;;;10.73;5.25;;;;;;;0.10;86.58;102605.72;4960763;28;20046;-65
2023/03/28 04:14:03;;;;;;;9.85;5.35;;;;;;;0.11;87.25;102606.63;4959877;28;20033;-65
2023/03/28 04:16:28;;;;;;;13.38;5.60;;;;;;;0.09;86.84;102615.84;4942041;28;20026;-65
2023/03/28 04:18:54;;;;;;;15.77;6.15;;;;;;;0.07;86.42;102618.22;4960748;28;20041;-65
2023/03/28 04:21:26;;;;;;;11.25;5.60;;;;;;;0.07;86.50;102614.78;4959817;28;20067;-65
2023/03/28 04:23:51;;;;;;;12.93;5.72;;;;;;;0.06;87.51;102606.19;4959856;28;20045;-65
2023/03/28 04:26:19;;;;;;;12.50;5.68;;;;;;;0.03;87.51;102607.56;4960919;28;20482;-65
2023/03/28 04:28:46;;;;;;;12.15;5.50;;;;;;;0.01;87.08;102601.38;4961150;28;20026;-65
2023/03/28 04:31:12;;;;;;;13.52;5.97;;;;;;;-0.02;86.68;102602.88;4959837;28;20126;-65
2023/03/28 04:33:38;;;;;;;10.63;5.60;;;;;;;-0.06;86.89;102598.25;4958930;28;20104;-65
2023/03/28 04:36:04;;;;;;;12.13;5.80;;;;;;;-0.07;86.57;102598.13;4942167;28;20513;-65
2023/03/28 04:38:35;;;;;;;13.68;5.68;;;;;;;-0.08;86.73;102597.19;4960919;28;20030;-65
2023/03/28 04:41:00;;;;;;;12.32;5.78;;;;;;;-0.07;86.64;102600.69;4959961;28;20054;-65
2023/03/28 04:43:30;;;;;;;12.88;6.15;;;;;;;-0.07;87.01;102599.00;4959582;28;20489;-65
2023/03/28 04:45:56;;;;;;;10.98;5.60;;;;;;;-0.09;86.61;102597.03;4959037;28;20062;-65
2023/03/28 04:48:23;;;;;;;12.05;6.35;;;;;;;-0.10;87.02;102601.28;4961600;28;20054;-65
2023/03/28 04:50:49;;;;;;;12.93;6.25;;;;;;;-0.09;86.91;102594.47;4958895;28;20031;-65
2023/03/28 04:53:15;;;;;;;12.65;6.10;;;;;;;-0.10;86.79;102602.91;4960438;28;20029;-65
2023/03/28 04:55:42;;;;;;;12.63;6.00;;;;;;;-0.09;86.42;102602.16;4964451;28;20035;-65
2023/03/28 04:58:09;;;;;;;12.20;6.13;;;;;;;-0.11;86.97;102596.00;4964361;28;20033;-65
2023/03/28 05:00:35;;;;;;;14.60;6.88;;;;;;;-0.14;87.07;102596.63;4963044;28;20103;-65
2023/03/28 05:03:03;;;;;;;13.25;6.28;;;;;;;-0.14;86.74;102601.75;4958111;28;20101;-65
2023/03/28 05:05:30;;;;;;;11.82;6.10;;;;;;;-0.14;86.59;102601.75;4963434;28;20038;-65
2023/03/28 05:07:57;;;;;;;14.88;6.28;;;;;;;-0.15;86.77;102604.16;4964429;28;20097;-65
2023/03/28 05:10:22;;;;;;;14.48;6.50;;;;;;;-0.20;86.88;102609.75;4963124;28;20054;-65
2023/03/28 05:12:48;;;;;;;12.50;6.68;;;;;;;-0.22;87.39;102610.34;4962308;28;20054;-65
2023/03/28 05:15:13;;;;;;;13.00;7.53;;;;;;;-0.25;87.25;102610.06;4963864;28;20031;-65
2023/03/28 05:17:39;;;;;;;11.95;6.90;;;;;;;-0.29;87.71;102621.69;4963599;28;20066;-65
2023/03/28 05:20:08;;;;;;;12.40;6.60;;;;;;;-0.32;87.26;102625.59;4944085;28;20379;-65
2023/03/28 05:22:33;;;;;;;13.05;6.25;;;;;;;-0.33;87.56;102622.13;4963254;28;20556;-65
2023/03/28 05:24:59;;;;;;;14.50;7.43;;;;;;;-0.32;87.25;102618.78;4962939;28;20026;-65
2023/03/28 05:27:24;;;;;;;15.45;8.10;;;;;;;-0.34;88.19;102622.88;4963064;28;20022;-65
2023/03/28 05:29:50;;;;;;;17.30;8.35;;;;;;;-0.34;87.99;102622.00;4962739;28;20193;-65
2023/03/28 05:32:15;;;;;;;13.60;8.05;;;;;;;-0.35;87.42;102618.50;4963257;28;20514;-65
2023/03/28 05:34:40;;;;;;;14.73;8.65;;;;;;;-0.38;87.35;102621.69;4963337;28;20581;-65
2023/03/28 05:37:06;;;;;;;16.42;8.52;;;;;;;-0.37;87.91;102622.59;4961957;28;20158;-66
2023/03/28 05:39:31;;;;;;;18.77;8.32;;;;;;;-0.39;87.98;102625.00;4946128;28;20030;-65
2023/03/28 05:41:57;;;;;;;17.55;8.63;;;;;;;-0.37;87.59;102628.59;4962753;28;20033;-65
2023/03/28 05:44:22;;;;;;;16.48;8.48;;;;;;;-0.32;88.23;102635.84;4962713;28;20035;-65
2023/03/28 05:46:47;;;;;;;18.13;9.05;;;;;;;-0.32;87.87;102631.59;4963849;28;20031;-65
2023/03/28 05:49:13;;;;;;;16.08;9.05;;;;;;;-0.33;88.80;102627.25;4963336;28;20074;-65
2023/03/28 05:51:38;;;;;;;20.02;10.02;;;;;;;-0.35;88.33;102636.44;4962675;28;20023;-65
2023/03/28 05:54:04;;;;;;;16.45;9.93;;;;;;;-0.35;88.66;102641.56;4963046;28;20401;-66
2023/03/28 05:56:31;;;;;;;16.23;9.27;;;;;;;-0.36;88.97;102635.53;4963855;28;20307;-65
2023/03/28 05:58:57;;;;;;;15.43;9.07;;;;;;;-0.39;88.76;102635.25;4962421;28;20045;-65
2023/03/28 06:01:26;;;;;;;17.02;9.60;;;;;;;-0.41;89.24;102628.16;4963182;28;20494;-65
2023/03/28 06:03:51;;;;;;;17.13;9.40;;;;;;;-0.41;89.99;102629.06;4962698;28;20035;-65
2023/03/28 06:06:18;;;;;;;16.80;9.80;;;;;;;-0.37;89.28;102623.47;4962304;28;20061;-65
2023/03/28 06:08:43;;;;;;;17.48;10.18;;;;;;;-0.32;89.88;102616.22;4962323;28;20026;-65
2023/03/28 06:11:09;;;;;;;17.20;10.38;;;;;;;-0.28;90.20;102617.44;4962814;28;20031;-65
2023/03/28 06:13:34;;;;;;;21.27;10.82;;;;;;;-0.25;90.12;102623.75;4962356;28;20134;-65
2023/03/28 06:15:59;;;;;;;20.10;10.82;;;;;;;-0.19;90.00;102615.75;4963644;28;20038;-66
2023/03/28 06:18:25;;;;;;;17.52;10.57;;;;;;;-0.12;90.15;102620.72;4962615;28;20031;-70
2023/03/28 06:20:50;;;;;;;18.70;11.05;;;;;;;-0.07;90.80;102616.03;4961886;28;20031;-70
2023/03/28 06:23:16;;;;;;;22.42;11.50;;;;;;;-0.06;89.75;102617.81;4962784;28;20115;-70
2023/03/28 06:25:42;;;;;;;17.35;11.00;;;;;;;-0.04;90.90;102624.03;4962952;28;20754;-70
2023/03/28 06:28:07;;;;;;;21.00;11.50;;;;;;;0.00;90.91;102626.13;4963241;28;20157;-70
2023/03/28 06:30:32;;;;;;;18.63;10.82;;;;;;;0.03;91.12;102636.66;4961830;28;20169;-70
2023/03/28 06:32:58;;;;;;;18.17;11.23;;;;;;;0.09;90.81;102629.53;4962080;28;20031;-70
2023/03/28 06:35:23;;;;;;;19.63;11.23;;;;;;;0.14;91.33;102628.31;4962013;28;20398;-70
2023/03/28 06:37:48;;;;;;;20.13;11.52;;;;;;;0.20;91.01;102633.09;4963304;28;20031;-70
2023/03/28 06:40:14;;;;;;;20.30;10.82;;;;;;;0.26;90.96;102635.34;4961905;28;20035;-71
2023/03/28 06:42:39;;;;;;;19.90;11.02;;;;;;;0.33;91.13;102635.16;4961543;28;20410;-71
2023/03/28 06:45:05;;;;;;;19.35;10.98;;;;;;;0.35;91.16;102633.66;4947125;28;20126;-70
2023/03/28 06:47:30;;;;;;;19.25;10.80;;;;;;;0.41;91.48;102635.91;4961548;28;20035;-71
2023/03/28 06:49:55;;;;;;;19.58;10.40;;;;;;;0.47;91.13;102634.81;4961867;28;20015;-71
2023/03/28 06:52:22;;;;;;;18.92;10.93;;;;;;;0.54;91.07;102631.16;4961829;28;20070;-71
2023/03/28 06:54:47;;;;;;;20.58;10.73;;;;;;;0.61;91.55;102636.09;4960649;28;20116;-71
2023/03/28 06:57:12;;;;;;;19.52;10.73;;;;;;;0.70;91.24;102641.19;4944772;28;20053;-71
2023/03/28 06:59:38;;;;;;;18.75;10.13;;;;;;;0.78;90.86;102641.88;4942682;28;20713;-71
2023/03/28 07:02:03;;;;;;;19.38;9.75;;;;;;;0.86;90.47;102641.81;4961426;28;20023;-71
2023/03/28 07:04:29;;;;;;;21.08;10.35;;;;;;;0.95;90.74;102639.19;4961278;28;20035;-71
2023/03/28 07:06:54;;;;;;;15.23;9.80;;;;;;;1.04;90.64;102642.63;4959848;28;20030;-71
2023/03/28 07:09:20;;;;;;;17.33;9.07;;;;;;;1.13;90.25;102642.56;4960987;28;20050;-71
2023/03/28 07:11:45;;;;;;;20.42;10.00;;;;;;;1.24;90.14;102650.31;4962198;28;20031;-71
2023/03/28 07:14:10;;;;;;;18.17;9.43;;;;;;;1.36;90.47;102647.19;4961576;28;20501;-71
2023/03/28 07:16:35;;;;;;;18.25;9.23;;;;;;;1.49;90.14;102644.06;4960447;28;20034;-71
2023/03/28 07:19:01;;;;;;;15.30;9.23;;;;;;;1.65;90.01;102645.41;4959328;28;20062;-72
2023/03/28 07:21:26;;;;;;;19.25;8.90;;;;;;;1.76;89.16;102639.56;4960219;28;20054;-72
2023/03/28 07:23:51;;;;;;;16.83;8.88;;;;;;;1.88;88.91;102643.22;4961689;28;20035;-72
2023/03/28 07:26:17;;;;;;;19.85;8.88;;;;;;;2.02;88.62;102651.22;4961257;28;20043;-65
2023/03/28 07:28:42;;;;;;;16.27;8.00;;;;;;;2.11;87.58;102652.03;4960330;28;20524;-65
2023/03/28 07:31:08;;;;;;;15.02;8.00;;;;;;;2.20;87.52;102657.06;4960902;28;20054;-65
2023/03/28 07:33:35;;;;;;;16.20;8.32;;;;;;;2.32;88.03;102646.94;4948012;28;21978;-65
2023/03/28 07:36:11;;;;;;;18.00;8.15;;;;;;;2.42;86.91;102649.56;4960825;28;20106;-66
2023/03/28 07:38:36;;;;;;;18.63;8.40;;;;;;;2.55;86.70;102648.91;4960308;28;20030;-66
2023/03/28 07:41:02;;;;;;;14.27;8.15;;;;;;;2.71;86.50;102658.81;4958315;28;20030;-66
2023/03/28 07:43:27;;;;;;;15.98;8.07;;;;;;;2.82;86.26;102652.91;4960625;28;20166;-66
2023/03/28 07:45:59;;;;;;;15.27;7.97;;;;;;;2.94;85.00;102656.53;4959435;28;20058;-66
2023/03/28 07:48:24;;;;;;;16.40;8.10;;;;;;;3.13;86.44;102655.50;4960787;28;20019;-66
2023/03/28 07:50:49;;;;;;;14.95;7.82;;;;;;;3.31;85.60;102651.84;4960114;28;20034;-66
2023/03/28 07:53:14;;;;;;;15.13;7.03;;;;;;;3.45;84.85;102652.09;4959620;28;20083;-66
2023/03/28 07:55:42;;;;;;;12.10;6.28;;;;;;;3.55;83.21;102646.00;4959864;28;20438;-66
2023/03/28 07:58:08;;;;;;;14.23;6.88;;;;;;;3.56;82.21;102646.13;4960745;28;20027;-66
2023/03/28 08:00:33;;;;;;;17.25;6.85;;;;;;;3.61;83.54;102652.56;4960401;28;20132;-66
2023/03/28 08:02:59;;;;;;;13.40;7.30;;;;;;;3.71;83.68;102645.56;4960826;28;20066;-66
2023/03/28 08:05:25;;;;;;;13.55;6.60;;;;;;;3.79;82.21;102650.53;4960718;28;20394;-66
2023/03/28 08:07:52;;;;;;;15.07;6.28;;;;;;;3.86;82.28;102654.53;4960230;28;20026;-66
2023/03/28 08:10:18;;;;;;;12.07;5.95;;;;;;;3.93;82.17;102655.94;4957800;28;20047;-66
2023/03/28 08:12:43;;;;;;;11.75;5.93;;;;;;;4.02;81.68;102664.38;4957966;28;20037;-66
2023/03/28 08:15:09;;;;;;;14.35;6.57;;;;;;;4.08;81.24;102654.56;4958614;28;20050;-66
2023/03/28 08:17:34;;;;;;;10.80;5.60;;;;;;;4.19;81.93;102655.41;4958034;28;20031;-66
2023/03/28 08:20:00;;;;;;;13.15;5.60;;;;;;;4.24;79.91;102661.81;4960276;28;20536;-66
2023/03/28 08:22:25;;;;;;;10.43;5.65;;;;;;;4.20;80.05;102662.38;4961262;28;20046;-66
2023/03/28 08:24:51;;;;;;;11.82;5.38;;;;;;;4.24;80.11;102661.81;4960357;28;20030;-66
2023/03/28 08:27:16;;;;;;;10.88;5.25;;;;;;;4.27;79.37;102664.66;4960582;28;20059;-67
2023/03/28 08:29:42;;;;;;;12.73;5.40;;;;;;;4.35;80.69;102658.41;4959982;28;20034;-66
2023/03/28 08:32:07;;;;;;;12.82;4.70;;;;;;;4.44;79.87;102653.06;4960413;28;20030;-67
2023/03/28 08:34:33;;;;;;;10.07;4.40;;;;;;;4.53;78.66;102653.78;4960610;28;20035;-66
2023/03/28 08:36:58;;;;;;;9.65;4.30;;;;;;;4.68;80.27;102653.19;4960505;28;20041;-66
2023/03/28 08:39:25;;;;;;;11.10;4.43;;;;;;;4.81;79.18;102653.31;4961177;28;20054;-66
2023/03/28 08:42:22;;;;;;;7.47;2.80;;;;;;;4.93;79.67;102642.13;4960344;28;20023;-66
2023/03/28 08:44:56;;;;;;;8.88;3.33;;;;;;;5.05;75.49;102643.03;4960774;28;20065;-66
2023/03/28 08:47:28;;;;;;;10.35;3.60;;;;;;;5.14;76.01;102640.25;4957152;28;20035;-66
2023/03/28 08:50:24;;;;;;;10.40;4.00;;;;;;;5.22;77.06;102641.72;4960422;28;20023;-66
2023/03/28 08:52:50;;;;;;;9.73;4.00;;;;;;;5.28;77.53;102638.69;4961537;28;20031;-66
2023/03/28 08:55:46;;;;;;;6.82;3.58;;;;;;;5.37;76.15;102641.94;4959918;28;20298;-66
2023/03/28 08:58:22;;;;;;;9.35;2.28;;;;;;;5.28;72.33;102634.41;4951611;28;20038;-66
2023/03/28 09:00:49;;;;;;;9.10;3.15;;;;;;;5.27;74.39;102630.06;4961300;28;20081;-66
2023/03/28 09:03:20;;;;;;;11.23;3.28;;;;;;;5.26;73.45;102641.16;4960294;28;20038;-67
2023/03/28 09:06:00;;;;;;;6.72;2.35;;;;;;;5.24;72.21;102634.97;4960035;28;20131;-66
2023/03/28 09:08:55;;;;;;;8.52;3.15;;;;;;;5.21;72.30;102632.16;4960192;28;20130;-66
2023/03/28 09:11:31;;;;;;;8.18;2.80;;;;;;;5.17;72.24;102633.63;4959775;28;20401;-66
2023/03/28 09:14:21;;;;;;;7.55;2.75;;;;;;;5.22;74.07;102632.28;4958670;28;20073;-66
2023/03/28 09:17:32;;;;;;;7.53;2.70;;;;;;;5.19;73.45;102636.31;4960387;28;20091;-66
2023/03/28 09:20:18;;;;;;;9.00;2.78;;;;;;;5.15;70.91;102629.13;4959823;28;20098;-66
2023/03/28 09:23:21;;;;;;;8.30;3.00;;;;;;;5.13;73.73;102629.00;4960069;28;20034;-66
2023/03/28 09:25:52;;;;;;;8.73;2.28;;;;;;;5.09;70.71;102629.56;4961175;28;20035;-66
2023/03/28 09:28:50;;;;;;;10.18;2.42;;;;;;;5.04;72.18;102634.41;4958593;28;20035;-66
2023/03/28 09:31:17;;;;;;;9.30;3.08;;;;;;;5.07;72.35;102623.41;4936620;28;20043;-66
2023/03/28 09:33:47;;;;;;;7.28;3.08;;;;;;;5.13;74.66;102612.63;4944662;28;20030;-66
2023/03/28 09:36:27;;;;;;;8.63;2.80;;;;;;;5.16;73.53;102618.91;5006333;23;20059;-96
2023/03/28 09:38:57;;;;;;;6.00;2.33;;;;;;;5.16;70.54;102612.84;4937453;28;20027;-96
2023/03/28 09:41:47;;;;;;;5.93;2.30;;;;;;;5.18;70.48;102619.00;4939593;28;20034;-96
2023/03/28 09:44:16;;;;;;;;;;;;;;;5.32;73.17;102610.59;4953770;28;20118;-96
2023/03/28 09:46:45;;;;;;;6.93;2.42;;;;;;;5.42;70.91;102614.75;4951068;28;19914;-96
2023/03/28 09:49:19;;;;;;;;;;;;;;;5.50;73.07;102605.84;4925186;29;20028;-96
2023/03/28 09:51:57;;;;;;;6.75;2.35;;;;;;;5.52;70.10;102609.47;4943032;28;19969;-96
2023/03/28 09:54:34;;;;;;;9.88;2.45;;;;;;;5.51;70.41;102593.84;4922010;29;20023;-96
2023/03/28 09:57:02;;;;;;;7.85;2.28;;;;;;;5.52;71.00;102599.13;4942053;28;20035;-95
2023/03/28 09:59:40;;;;;;;8.95;2.63;;;;;;;5.55;68.22;102598.47;4923491;29;20028;-95
2023/03/28 10:02:29;;;;;;;6.82;2.13;;;;;;;5.52;69.13;102583.63;4940334;28;20044;-96
2023/03/28 10:04:55;;;;;;;7.15;2.10;;;;;;;5.56;68.04;102595.97;4924839;29;20107;-96
2023/03/28 10:07:41;;;;;;;9.05;2.25;;;;;;;5.67;70.40;102582.94;4941308;28;20058;-96
2023/03/28 10:10:16;;;;;;;9.95;2.22;;;;;;;5.77;66.67;102568.97;4927890;28;20039;-96
2023/03/28 10:12:50;;;;;;;7.47;2.20;;;;;;;5.85;65.78;102562.63;4923205;29;20119;-96
2023/03/28 10:15:40;;;;;;;6.95;1.95;;;;;;;5.95;65.43;102564.19;4943101;28;20083;-96
2023/03/28 10:18:06;;;;;;;5.30;1.73;;;;;;;5.97;65.24;102553.19;4930862;29;20279;-96
2023/03/28 10:20:36;;;;;;;5.90;2.08;;;;;;;5.97;64.96;102550.59;4934724;28;20500;-96
2023/03/28 10:23:04;;;;;;;6.55;1.70;;;;;;;5.96;63.38;102553.94;4927541;29;20039;-96
2023/03/28 10:25:44;;;;;;;7.22;3.08;;;;;;;5.91;62.90;102560.50;4921071;28;20043;-96
2023/03/28 10:28:19;;;;;;;5.97;1.73;;;;;;;6.00;64.01;102557.69;4923956;29;20043;-96
2023/03/28 10:30:56;;;;;;;6.13;1.95;;;;;;;6.17;65.53;102553.66;4940203;28;20066;-96
2023/03/28 10:33:41;;;;;;;5.00;1.98;;;;;;;6.30;65.87;102556.31;4936468;28;20400;-96
2023/03/28 10:36:11;;;;;;;6.03;2.17;;;;;;;6.36;63.70;102533.44;4937440;28;20059;-96
2023/03/28 10:38:43;;;;;;;7.40;2.58;;;;;;;6.46;65.79;102536.63;4922746;29;20114;-96
2023/03/28 10:41:23;;;;;;;7.47;2.33;;;;;;;6.42;62.87;102525.19;4922770;29;20114;-96
2023/03/28 10:43:50;;;;;;;5.88;2.40;;;;;;;6.36;64.18;102523.09;4924037;28;20026;-96
2023/03/28 10:46:31;;;;;;;7.78;2.08;;;;;;;6.40;63.34;102522.50;4932316;28;20509;-96
2023/03/28 10:49:02;;;;;;;5.88;2.08;;;;;;;6.45;62.04;102522.81;4932829;29;20081;-96
2023/03/28 10:51:31;;;;;;;5.18;1.88;;;;;;;6.44;60.39;102516.75;4929798;28;20082;-96
2023/03/28 10:54:25;;;;;;;6.57;2.10;;;;;;;6.54;62.15;102519.94;4953007;28;20034;-96
2023/03/28 10:57:15;;;;;;;4.88;1.88;;;;;;;6.80;60.95;102519.06;4977447;23;20137;-66
2023/03/28 11:00:05;;;;;;;5.93;1.70;;;;;;;7.00;56.63;102522.09;4963681;28;20090;-66
2023/03/28 11:02:56;;;;;;;6.63;1.90;;;;;;;7.12;59.71;102520.28;4966870;28;20031;-66
2023/03/28 11:05:27;;;;;;;5.20;1.70;;;;;;;7.12;57.05;102512.50;4966784;28;20034;-66
2023/03/28 11:08:13;;;;;;;5.90;2.08;;;;;;;7.09;57.54;102504.53;4964728;28;20045;-67
2023/03/28 11:10:55;;;;;;;7.00;2.10;;;;;;;7.17;59.62;102498.16;4961794;28;20149;-66
2023/03/28 11:13:42;;;;;;;6.25;2.40;;;;;;;7.26;59.00;102482.28;4960108;28;20045;-66
2023/03/28 11:16:29;;;;;;;6.90;2.13;;;;;;;7.34;57.53;102480.19;4961686;28;20492;-66
2023/03/28 11:19:01;;;;;;;6.57;2.13;;;;;;;7.47;55.88;102469.75;4965481;28;20041;-66
2023/03/28 11:21:42;;;;;;;4.43;2.17;;;;;;;7.54;57.41;102469.34;4965376;28;20046;-66
2023/03/28 11:24:45;;;;;;;8.43;2.33;;;;;;;7.64;58.44;102463.91;4963392;28;20029;-67
2023/03/28 11:27:25;;;;;;;7.38;2.70;;;;;;;7.78;57.44;102454.41;4963983;28;20116;-66
2023/03/28 11:30:01;;;;;;;6.80;2.63;;;;;;;7.87;57.69;102445.41;4968183;28;20046;-66
2023/03/28 11:32:48;;;;;;;4.80;2.53;;;;;;;7.98;56.33;102453.03;4965387;28;20166;-66
2023/03/28 11:35:27;;;;;;;7.22;2.58;;;;;;;8.00;57.61;102445.31;4965019;28;20030;-66
2023/03/28 11:38:04;;;;;;;7.57;2.40;;;;;;;8.06;55.56;102440.47;4964491;28;20034;-66
2023/03/28 11:40:37;;;;;;;8.73;2.50;;;;;;;8.10;56.46;102429.47;4948552;28;20038;-66
2023/03/28 11:43:05;;;;;;;7.32;2.30;;;;;;;8.26;55.83;102441.66;4967621;28;20027;-66
2023/03/28 11:45:38;;;;;;;7.50;2.30;;;;;;;8.38;54.93;102440.59;4966939;28;20034;-67
2023/03/28 11:48:06;;;;;;;8.98;2.65;;;;;;;8.55;56.68;102423.44;4967160;28;20035;-66